Miami, Florida
Traffic Map
Current Weather Conditions
Miami, Florida
Broken Clouds
Broken Clouds
81°
Feels Like: 86°
Wind Chill: 81° Ceiling: 3500
Heat Index: 86° Visibility: 10mi
Dew Point: 74° Wind: 20mph
Humidity: 79% Direction: 60° (ENE)
Pressure: 30in Gusts: 29mph
Raw Report DataKOPF 202253Z 06017G25KT 10SM SCT027 BKN035 BKN045 27/23 A3000 RMK AO2 RAE00B44E53 SLP158 P0000 T02720233
Traffic Incident Summary
Active as of:
Severity:
Category:
InformationThere was an issue retrieving the traffic information for this location. Please try a different location or try again shortly.
Advertisements